sensor_id;sensor_type;location;lat;lon;timestamp;P1;durP1;ratioP1;P2;durP2;ratioP2
8488;SDS011;4281;45.772;12.852;2023-05-10T00:00:29;2.00;;;1.80;;
8488;SDS011;4281;45.772;12.852;2023-05-10T00:02:57;2.53;;;2.20;;
8488;SDS011;4281;45.772;12.852;2023-05-10T00:05:25;2.33;;;2.20;;
8488;SDS011;4281;45.772;12.852;2023-05-10T00:07:53;1.97;;;1.83;;
8488;SDS011;4281;45.772;12.852;2023-05-10T00:10:21;2.63;;;1.90;;
8488;SDS011;4281;45.772;12.852;2023-05-10T00:12:49;2.10;;;2.00;;
8488;SDS011;4281;45.772;12.852;2023-05-10T00:15:17;2.20;;;2.00;;
8488;SDS011;4281;45.772;12.852;2023-05-10T00:17:46;2.57;;;2.10;;
8488;SDS011;4281;45.772;12.852;2023-05-10T00:20:14;2.20;;;2.00;;
8488;SDS011;4281;45.772;12.852;2023-05-10T00:22:43;2.20;;;2.00;;
8488;SDS011;4281;45.772;12.852;2023-05-10T00:25:11;2.30;;;2.10;;
8488;SDS011;4281;45.772;12.852;2023-05-10T00:27:38;2.00;;;1.90;;
8488;SDS011;4281;45.772;12.852;2023-05-10T00:30:07;2.30;;;2.10;;
8488;SDS011;4281;45.772;12.852;2023-05-10T00:32:35;2.10;;;1.90;;
8488;SDS011;4281;45.772;12.852;2023-05-10T00:35:05;2.60;;;2.27;;
8488;SDS011;4281;45.772;12.852;2023-05-10T00:37:33;3.70;;;1.60;;
8488;SDS011;4281;45.772;12.852;2023-05-10T00:40:02;2.40;;;2.17;;
8488;SDS011;4281;45.772;12.852;2023-05-10T00:42:31;2.10;;;2.00;;
8488;SDS011;4281;45.772;12.852;2023-05-10T00:44:58;2.63;;;1.90;;
8488;SDS011;4281;45.772;12.852;2023-05-10T00:47:26;2.03;;;1.93;;
8488;SDS011;4281;45.772;12.852;2023-05-10T00:49:55;2.20;;;2.00;;
8488;SDS011;4281;45.772;12.852;2023-05-10T00:52:24;1.97;;;1.80;;
8488;SDS011;4281;45.772;12.852;2023-05-10T00:54:52;1.87;;;1.77;;
8488;SDS011;4281;45.772;12.852;2023-05-10T00:57:20;2.27;;;1.80;;
8488;SDS011;4281;45.772;12.852;2023-05-10T00:59:48;2.20;;;2.00;;
8488;SDS011;4281;45.772;12.852;2023-05-10T01:02:16;1.90;;;1.80;;
8488;SDS011;4281;45.772;12.852;2023-05-10T01:04:44;1.80;;;1.70;;
8488;SDS011;4281;45.772;12.852;2023-05-10T01:07:15;1.90;;;1.80;;
8488;SDS011;4281;45.772;12.852;2023-05-10T01:09:44;2.53;;;2.00;;
8488;SDS011;4281;45.772;12.852;2023-05-10T01:12:12;2.10;;;1.90;;
8488;SDS011;4281;45.772;12.852;2023-05-10T01:14:40;1.77;;;1.67;;
8488;SDS011;4281;45.772;12.852;2023-05-10T01:17:08;1.97;;;1.80;;
8488;SDS011;4281;45.772;12.852;2023-05-10T01:19:37;1.80;;;1.70;;
8488;SDS011;4281;45.772;12.852;2023-05-10T01:22:07;2.07;;;1.73;;
8488;SDS011;4281;45.772;12.852;2023-05-10T01:24:53;2.20;;;2.00;;
8488;SDS011;4281;45.772;12.852;2023-05-10T01:27:47;2.10;;;1.90;;
8488;SDS011;4281;45.772;12.852;2023-05-10T01:33:14;2.60;;;2.20;;
8488;SDS011;4281;45.772;12.852;2023-05-10T01:35:45;2.27;;;1.90;;
8488;SDS011;4281;45.772;12.852;2023-05-10T01:38:17;2.27;;;2.07;;
8488;SDS011;4281;45.772;12.852;2023-05-10T01:40:52;2.40;;;2.20;;
8488;SDS011;4281;45.772;12.852;2023-05-10T01:43:25;2.23;;;2.10;;
8488;SDS011;4281;45.772;12.852;2023-05-10T01:45:59;2.57;;;2.37;;
8488;SDS011;4281;45.772;12.852;2023-05-10T01:48:32;2.60;;;2.40;;
8488;SDS011;4281;45.772;12.852;2023-05-10T01:51:00;2.60;;;2.40;;
8488;SDS011;4281;45.772;12.852;2023-05-10T01:53:28;3.67;;;2.37;;
8488;SDS011;4281;45.772;12.852;2023-05-10T01:55:56;2.60;;;2.40;;
8488;SDS011;4281;45.772;12.852;2023-05-10T01:58:27;2.73;;;2.53;;
8488;SDS011;4281;45.772;12.852;2023-05-10T02:00:58;2.10;;;2.00;;
8488;SDS011;4281;45.772;12.852;2023-05-10T02:03:28;2.40;;;2.20;;
8488;SDS011;4281;45.772;12.852;2023-05-10T02:05:58;3.00;;;2.20;;
8488;SDS011;4281;45.772;12.852;2023-05-10T02:08:26;2.67;;;2.20;;
8488;SDS011;4281;45.772;12.852;2023-05-10T02:10:55;2.40;;;2.17;;
8488;SDS011;4281;45.772;12.852;2023-05-10T02:13:25;2.10;;;2.00;;
8488;SDS011;4281;45.772;12.852;2023-05-10T02:15:54;2.00;;;1.90;;
8488;SDS011;4281;45.772;12.852;2023-05-10T02:18:23;1.90;;;1.80;;
8488;SDS011;4281;45.772;12.852;2023-05-10T02:20:51;2.10;;;2.00;;
8488;SDS011;4281;45.772;12.852;2023-05-10T02:23:21;2.00;;;1.80;;
8488;SDS011;4281;45.772;12.852;2023-05-10T02:25:50;1.83;;;1.73;;
8488;SDS011;4281;45.772;12.852;2023-05-10T02:28:19;2.20;;;2.10;;
8488;SDS011;4281;45.772;12.852;2023-05-10T02:30:49;1.97;;;1.77;;
8488;SDS011;4281;45.772;12.852;2023-05-10T02:33:17;1.90;;;1.80;;
8488;SDS011;4281;45.772;12.852;2023-05-10T02:35:45;1.73;;;1.63;;
8488;SDS011;4281;45.772;12.852;2023-05-10T02:38:14;1.63;;;1.53;;
8488;SDS011;4281;45.772;12.852;2023-05-10T02:40:43;1.90;;;1.80;;
8488;SDS011;4281;45.772;12.852;2023-05-10T02:43:12;2.10;;;1.90;;
8488;SDS011;4281;45.772;12.852;2023-05-10T02:45:42;2.10;;;1.90;;
8488;SDS011;4281;45.772;12.852;2023-05-10T02:48:11;1.80;;;1.70;;
8488;SDS011;4281;45.772;12.852;2023-05-10T02:50:39;1.90;;;1.80;;
8488;SDS011;4281;45.772;12.852;2023-05-10T02:53:09;2.37;;;1.70;;
8488;SDS011;4281;45.772;12.852;2023-05-10T02:55:40;1.77;;;1.67;;
8488;SDS011;4281;45.772;12.852;2023-05-10T02:58:10;1.50;;;1.40;;
8488;SDS011;4281;45.772;12.852;2023-05-10T03:00:38;2.00;;;1.90;;
8488;SDS011;4281;45.772;12.852;2023-05-10T03:03:06;2.13;;;2.03;;
8488;SDS011;4281;45.772;12.852;2023-05-10T03:05:34;2.23;;;1.90;;
8488;SDS011;4281;45.772;12.852;2023-05-10T03:08:04;1.90;;;1.80;;
8488;SDS011;4281;45.772;12.852;2023-05-10T03:10:32;1.80;;;1.70;;
8488;SDS011;4281;45.772;12.852;2023-05-10T03:13:08;2.73;;;2.10;;
8488;SDS011;4281;45.772;12.852;2023-05-10T03:15:47;2.10;;;1.90;;
8488;SDS011;4281;45.772;12.852;2023-05-10T03:18:21;2.00;;;1.90;;
8488;SDS011;4281;45.772;12.852;2023-05-10T03:20:50;2.27;;;1.90;;
8488;SDS011;4281;45.772;12.852;2023-05-10T03:23:21;2.03;;;1.93;;
8488;SDS011;4281;45.772;12.852;2023-05-10T03:25:50;1.90;;;1.80;;
8488;SDS011;4281;45.772;12.852;2023-05-10T03:28:20;2.10;;;1.90;;
8488;SDS011;4281;45.772;12.852;2023-05-10T03:30:48;2.10;;;2.00;;
8488;SDS011;4281;45.772;12.852;2023-05-10T03:33:17;2.53;;;1.93;;
8488;SDS011;4281;45.772;12.852;2023-05-10T03:35:44;2.53;;;1.70;;
8488;SDS011;4281;45.772;12.852;2023-05-10T03:38:12;2.00;;;1.90;;
8488;SDS011;4281;45.772;12.852;2023-05-10T03:40:40;2.27;;;2.07;;
8488;SDS011;4281;45.772;12.852;2023-05-10T03:43:10;2.00;;;1.80;;
8488;SDS011;4281;45.772;12.852;2023-05-10T03:45:40;2.50;;;1.80;;
8488;SDS011;4281;45.772;12.852;2023-05-10T03:48:07;1.60;;;1.50;;
8488;SDS011;4281;45.772;12.852;2023-05-10T03:50:35;2.03;;;1.90;;
8488;SDS011;4281;45.772;12.852;2023-05-10T03:53:04;2.00;;;1.90;;
8488;SDS011;4281;45.772;12.852;2023-05-10T03:55:31;2.00;;;1.87;;
8488;SDS011;4281;45.772;12.852;2023-05-10T03:58:02;1.80;;;1.70;;
8488;SDS011;4281;45.772;12.852;2023-05-10T04:00:30;2.17;;;1.97;;
8488;SDS011;4281;45.772;12.852;2023-05-10T04:03:00;2.73;;;2.00;;
8488;SDS011;4281;45.772;12.852;2023-05-10T04:05:28;1.97;;;1.87;;
8488;SDS011;4281;45.772;12.852;2023-05-10T04:07:56;2.40;;;2.20;;
8488;SDS011;4281;45.772;12.852;2023-05-10T04:10:24;2.47;;;2.27;;
8488;SDS011;4281;45.772;12.852;2023-05-10T04:12:52;2.33;;;2.13;;
8488;SDS011;4281;45.772;12.852;2023-05-10T04:15:20;2.30;;;2.10;;
8488;SDS011;4281;45.772;12.852;2023-05-10T04:17:47;2.50;;;2.30;;
8488;SDS011;4281;45.772;12.852;2023-05-10T04:20:17;2.10;;;2.00;;
8488;SDS011;4281;45.772;12.852;2023-05-10T04:22:45;2.20;;;2.00;;
8488;SDS011;4281;45.772;12.852;2023-05-10T04:25:13;2.43;;;2.23;;
8488;SDS011;4281;45.772;12.852;2023-05-10T04:27:41;2.27;;;2.00;;
8488;SDS011;4281;45.772;12.852;2023-05-10T04:30:09;2.40;;;2.20;;
8488;SDS011;4281;45.772;12.852;2023-05-10T04:32:38;2.10;;;1.87;;
8488;SDS011;4281;45.772;12.852;2023-05-10T04:35:06;2.23;;;2.03;;
8488;SDS011;4281;45.772;12.852;2023-05-10T04:37:35;2.00;;;1.90;;
8488;SDS011;4281;45.772;12.852;2023-05-10T04:40:04;2.27;;;2.07;;
8488;SDS011;4281;45.772;12.852;2023-05-10T04:42:33;2.60;;;2.40;;
8488;SDS011;4281;45.772;12.852;2023-05-10T04:45:01;2.20;;;2.00;;
8488;SDS011;4281;45.772;12.852;2023-05-10T04:47:30;2.73;;;2.03;;
8488;SDS011;4281;45.772;12.852;2023-05-10T04:49:58;2.20;;;1.90;;
8488;SDS011;4281;45.772;12.852;2023-05-10T04:52:26;2.40;;;2.20;;
8488;SDS011;4281;45.772;12.852;2023-05-10T04:54:56;3.17;;;1.80;;
8488;SDS011;4281;45.772;12.852;2023-05-10T04:57:23;2.60;;;2.40;;
8488;SDS011;4281;45.772;12.852;2023-05-10T04:59:51;2.70;;;2.50;;
8488;SDS011;4281;45.772;12.852;2023-05-10T05:02:19;3.20;;;2.50;;
8488;SDS011;4281;45.772;12.852;2023-05-10T05:04:48;3.83;;;2.50;;
8488;SDS011;4281;45.772;12.852;2023-05-10T05:07:15;2.87;;;2.60;;
8488;SDS011;4281;45.772;12.852;2023-05-10T05:09:43;2.40;;;2.20;;
8488;SDS011;4281;45.772;12.852;2023-05-10T05:12:13;2.90;;;2.70;;
8488;SDS011;4281;45.772;12.852;2023-05-10T05:14:41;2.70;;;2.10;;
8488;SDS011;4281;45.772;12.852;2023-05-10T05:17:09;7.30;;;3.13;;
8488;SDS011;4281;45.772;12.852;2023-05-10T05:19:37;4.60;;;2.70;;
8488;SDS011;4281;45.772;12.852;2023-05-10T05:22:06;4.13;;;2.90;;
8488;SDS011;4281;45.772;12.852;2023-05-10T05:24:34;2.60;;;2.40;;
8488;SDS011;4281;45.772;12.852;2023-05-10T05:27:04;3.30;;;2.67;;
8488;SDS011;4281;45.772;12.852;2023-05-10T05:29:33;2.73;;;2.50;;
8488;SDS011;4281;45.772;12.852;2023-05-10T05:32:01;2.83;;;2.53;;
8488;SDS011;4281;45.772;12.852;2023-05-10T05:34:29;2.80;;;2.47;;
8488;SDS011;4281;45.772;12.852;2023-05-10T05:36:57;2.60;;;2.40;;
8488;SDS011;4281;45.772;12.852;2023-05-10T05:39:25;2.40;;;2.20;;
8488;SDS011;4281;45.772;12.852;2023-05-10T05:41:55;2.60;;;2.40;;
8488;SDS011;4281;45.772;12.852;2023-05-10T05:44:23;2.80;;;2.57;;
8488;SDS011;4281;45.772;12.852;2023-05-10T05:46:53;2.40;;;2.20;;
8488;SDS011;4281;45.772;12.852;2023-05-10T05:49:21;2.60;;;2.40;;
8488;SDS011;4281;45.772;12.852;2023-05-10T05:51:48;3.20;;;2.83;;
8488;SDS011;4281;45.772;12.852;2023-05-10T05:54:16;2.60;;;2.40;;
8488;SDS011;4281;45.772;12.852;2023-05-10T05:56:44;2.43;;;2.23;;
8488;SDS011;4281;45.772;12.852;2023-05-10T05:59:12;2.33;;;2.13;;
8488;SDS011;4281;45.772;12.852;2023-05-10T06:01:40;2.57;;;2.37;;
8488;SDS011;4281;45.772;12.852;2023-05-10T06:04:09;2.50;;;2.30;;
8488;SDS011;4281;45.772;12.852;2023-05-10T06:06:38;2.33;;;2.13;;
8488;SDS011;4281;45.772;12.852;2023-05-10T06:09:06;2.10;;;2.00;;
8488;SDS011;4281;45.772;12.852;2023-05-10T06:11:34;2.90;;;2.33;;
8488;SDS011;4281;45.772;12.852;2023-05-10T06:14:03;2.23;;;2.03;;
8488;SDS011;4281;45.772;12.852;2023-05-10T06:16:35;2.60;;;2.33;;
8488;SDS011;4281;45.772;12.852;2023-05-10T06:19:03;3.00;;;2.70;;
8488;SDS011;4281;45.772;12.852;2023-05-10T06:21:32;2.50;;;2.30;;
8488;SDS011;4281;45.772;12.852;2023-05-10T06:24:00;2.60;;;2.40;;
8488;SDS011;4281;45.772;12.852;2023-05-10T06:26:28;2.73;;;2.40;;
8488;SDS011;4281;45.772;12.852;2023-05-10T06:28:56;2.83;;;2.20;;
8488;SDS011;4281;45.772;12.852;2023-05-10T06:31:24;2.67;;;2.47;;
8488;SDS011;4281;45.772;12.852;2023-05-10T06:33:52;2.73;;;2.53;;
8488;SDS011;4281;45.772;12.852;2023-05-10T06:36:22;2.60;;;2.40;;
8488;SDS011;4281;45.772;12.852;2023-05-10T06:38:52;3.87;;;2.60;;
8488;SDS011;4281;45.772;12.852;2023-05-10T06:41:20;2.50;;;2.30;;
8488;SDS011;4281;45.772;12.852;2023-05-10T06:43:50;2.87;;;2.37;;
8488;SDS011;4281;45.772;12.852;2023-05-10T06:46:18;2.60;;;2.40;;
8488;SDS011;4281;45.772;12.852;2023-05-10T06:48:46;2.60;;;2.40;;
8488;SDS011;4281;45.772;12.852;2023-05-10T06:51:13;2.87;;;2.57;;
8488;SDS011;4281;45.772;12.852;2023-05-10T06:53:41;2.43;;;2.23;;
8488;SDS011;4281;45.772;12.852;2023-05-10T06:56:10;2.53;;;2.33;;
8488;SDS011;4281;45.772;12.852;2023-05-10T06:58:38;2.40;;;2.20;;
8488;SDS011;4281;45.772;12.852;2023-05-10T07:01:06;2.53;;;2.33;;
8488;SDS011;4281;45.772;12.852;2023-05-10T07:03:35;2.57;;;2.37;;
8488;SDS011;4281;45.772;12.852;2023-05-10T07:06:03;5.07;;;2.77;;
8488;SDS011;4281;45.772;12.852;2023-05-10T07:08:33;3.10;;;2.60;;
8488;SDS011;4281;45.772;12.852;2023-05-10T07:11:01;2.53;;;2.20;;
8488;SDS011;4281;45.772;12.852;2023-05-10T07:13:31;3.00;;;2.67;;
8488;SDS011;4281;45.772;12.852;2023-05-10T07:15:59;2.50;;;2.30;;
8488;SDS011;4281;45.772;12.852;2023-05-10T07:18:28;2.43;;;2.23;;
8488;SDS011;4281;45.772;12.852;2023-05-10T07:20:56;2.40;;;2.20;;
8488;SDS011;4281;45.772;12.852;2023-05-10T07:23:24;2.90;;;2.70;;
8488;SDS011;4281;45.772;12.852;2023-05-10T07:25:53;3.07;;;2.50;;
8488;SDS011;4281;45.772;12.852;2023-05-10T07:28:21;2.60;;;2.40;;
8488;SDS011;4281;45.772;12.852;2023-05-10T07:30:50;2.87;;;2.67;;
8488;SDS011;4281;45.772;12.852;2023-05-10T07:33:18;2.93;;;2.63;;
8488;SDS011;4281;45.772;12.852;2023-05-10T07:35:47;2.60;;;2.40;;
8488;SDS011;4281;45.772;12.852;2023-05-10T07:38:15;2.53;;;2.33;;
8488;SDS011;4281;45.772;12.852;2023-05-10T07:40:43;3.00;;;2.80;;
8488;SDS011;4281;45.772;12.852;2023-05-10T07:43:11;3.20;;;2.90;;
8488;SDS011;4281;45.772;12.852;2023-05-10T07:45:39;2.80;;;2.60;;
8488;SDS011;4281;45.772;12.852;2023-05-10T07:48:08;2.87;;;2.60;;
8488;SDS011;4281;45.772;12.852;2023-05-10T07:50:36;3.17;;;2.97;;
8488;SDS011;4281;45.772;12.852;2023-05-10T07:53:04;3.30;;;2.87;;
8488;SDS011;4281;45.772;12.852;2023-05-10T07:55:32;2.90;;;2.70;;
8488;SDS011;4281;45.772;12.852;2023-05-10T07:57:59;3.30;;;3.00;;
8488;SDS011;4281;45.772;12.852;2023-05-10T08:00:28;3.20;;;3.00;;
8488;SDS011;4281;45.772;12.852;2023-05-10T08:02:56;3.70;;;3.17;;
8488;SDS011;4281;45.772;12.852;2023-05-10T08:05:25;3.30;;;3.00;;
8488;SDS011;4281;45.772;12.852;2023-05-10T08:07:53;3.97;;;3.13;;
8488;SDS011;4281;45.772;12.852;2023-05-10T08:10:21;3.23;;;2.93;;
8488;SDS011;4281;45.772;12.852;2023-05-10T08:12:49;3.20;;;3.00;;
8488;SDS011;4281;45.772;12.852;2023-05-10T08:15:17;3.17;;;2.93;;
8488;SDS011;4281;45.772;12.852;2023-05-10T08:17:45;3.60;;;3.30;;
8488;SDS011;4281;45.772;12.852;2023-05-10T08:20:13;3.47;;;3.13;;
8488;SDS011;4281;45.772;12.852;2023-05-10T08:22:44;4.13;;;3.30;;
8488;SDS011;4281;45.772;12.852;2023-05-10T08:25:15;3.77;;;3.47;;
8488;SDS011;4281;45.772;12.852;2023-05-10T08:27:43;3.57;;;3.27;;
8488;SDS011;4281;45.772;12.852;2023-05-10T08:30:12;4.57;;;3.50;;
8488;SDS011;4281;45.772;12.852;2023-05-10T08:32:40;3.53;;;3.20;;
8488;SDS011;4281;45.772;12.852;2023-05-10T08:35:08;3.50;;;3.20;;
8488;SDS011;4281;45.772;12.852;2023-05-10T08:37:36;3.30;;;3.00;;
8488;SDS011;4281;45.772;12.852;2023-05-10T08:40:06;3.70;;;3.40;;
8488;SDS011;4281;45.772;12.852;2023-05-10T08:42:36;3.73;;;3.43;;
8488;SDS011;4281;45.772;12.852;2023-05-10T08:45:07;3.63;;;3.33;;
8488;SDS011;4281;45.772;12.852;2023-05-10T08:47:36;3.30;;;3.10;;
8488;SDS011;4281;45.772;12.852;2023-05-10T08:50:05;3.57;;;3.37;;
8488;SDS011;4281;45.772;12.852;2023-05-10T08:52:34;3.83;;;3.53;;
8488;SDS011;4281;45.772;12.852;2023-05-10T08:55:07;3.53;;;3.23;;
8488;SDS011;4281;45.772;12.852;2023-05-10T08:57:35;3.67;;;3.37;;
8488;SDS011;4281;45.772;12.852;2023-05-10T09:00:04;3.63;;;3.40;;
8488;SDS011;4281;45.772;12.852;2023-05-10T09:02:34;3.63;;;3.33;;
8488;SDS011;4281;45.772;12.852;2023-05-10T09:05:03;4.67;;;4.00;;
8488;SDS011;4281;45.772;12.852;2023-05-10T09:07:31;3.80;;;3.50;;
8488;SDS011;4281;45.772;12.852;2023-05-10T09:10:01;4.00;;;3.70;;
8488;SDS011;4281;45.772;12.852;2023-05-10T09:12:31;3.93;;;3.53;;
8488;SDS011;4281;45.772;12.852;2023-05-10T09:14:59;4.60;;;4.00;;
8488;SDS011;4281;45.772;12.852;2023-05-10T09:17:27;4.37;;;3.97;;
8488;SDS011;4281;45.772;12.852;2023-05-10T09:19:58;4.50;;;4.10;;
8488;SDS011;4281;45.772;12.852;2023-05-10T09:22:27;3.93;;;3.63;;
8488;SDS011;4281;45.772;12.852;2023-05-10T09:25:04;4.30;;;3.90;;
8488;SDS011;4281;45.772;12.852;2023-05-10T09:27:34;4.03;;;3.70;;
8488;SDS011;4281;45.772;12.852;2023-05-10T09:30:06;3.97;;;3.67;;
8488;SDS011;4281;45.772;12.852;2023-05-10T09:32:39;4.37;;;3.97;;
8488;SDS011;4281;45.772;12.852;2023-05-10T09:35:07;4.07;;;3.70;;
8488;SDS011;4281;45.772;12.852;2023-05-10T09:37:36;4.50;;;4.10;;
8488;SDS011;4281;45.772;12.852;2023-05-10T09:40:04;4.23;;;3.83;;
8488;SDS011;4281;45.772;12.852;2023-05-10T09:42:35;4.10;;;3.80;;
8488;SDS011;4281;45.772;12.852;2023-05-10T09:45:03;4.30;;;3.90;;
8488;SDS011;4281;45.772;12.852;2023-05-10T09:47:32;3.90;;;3.30;;
8488;SDS011;4281;45.772;12.852;2023-05-10T09:50:01;4.10;;;3.80;;
8488;SDS011;4281;45.772;12.852;2023-05-10T09:52:31;4.43;;;4.03;;
8488;SDS011;4281;45.772;12.852;2023-05-10T09:55:13;4.07;;;3.77;;
8488;SDS011;4281;45.772;12.852;2023-05-10T09:57:43;4.00;;;3.70;;
8488;SDS011;4281;45.772;12.852;2023-05-10T10:00:12;4.27;;;3.87;;
8488;SDS011;4281;45.772;12.852;2023-05-10T10:02:45;4.47;;;4.13;;
8488;SDS011;4281;45.772;12.852;2023-05-10T10:05:14;4.57;;;4.13;;
8488;SDS011;4281;45.772;12.852;2023-05-10T10:07:42;4.30;;;3.90;;
8488;SDS011;4281;45.772;12.852;2023-05-10T10:10:10;4.70;;;4.13;;
8488;SDS011;4281;45.772;12.852;2023-05-10T10:12:39;4.83;;;4.43;;
8488;SDS011;4281;45.772;12.852;2023-05-10T10:15:09;5.50;;;4.23;;
8488;SDS011;4281;45.772;12.852;2023-05-10T10:17:40;4.77;;;4.37;;
8488;SDS011;4281;45.772;12.852;2023-05-10T10:20:09;6.27;;;4.37;;
8488;SDS011;4281;45.772;12.852;2023-05-10T10:22:40;4.60;;;4.20;;
8488;SDS011;4281;45.772;12.852;2023-05-10T10:25:08;4.80;;;4.40;;
8488;SDS011;4281;45.772;12.852;2023-05-10T10:27:41;4.53;;;4.13;;
8488;SDS011;4281;45.772;12.852;2023-05-10T10:30:16;4.70;;;4.27;;
8488;SDS011;4281;45.772;12.852;2023-05-10T10:35:53;4.97;;;4.47;;
8488;SDS011;4281;45.772;12.852;2023-05-10T10:38:22;5.33;;;4.83;;
8488;SDS011;4281;45.772;12.852;2023-05-10T10:40:57;4.70;;;4.30;;
8488;SDS011;4281;45.772;12.852;2023-05-10T10:43:29;5.37;;;4.83;;
8488;SDS011;4281;45.772;12.852;2023-05-10T10:46:12;5.13;;;4.63;;
8488;SDS011;4281;45.772;12.852;2023-05-10T10:48:41;4.80;;;4.40;;
8488;SDS011;4281;45.772;12.852;2023-05-10T10:51:11;5.20;;;4.80;;
8488;SDS011;4281;45.772;12.852;2023-05-10T10:53:40;6.17;;;5.53;;
8488;SDS011;4281;45.772;12.852;2023-05-10T10:56:09;6.00;;;5.20;;
8488;SDS011;4281;45.772;12.852;2023-05-10T10:58:38;5.60;;;5.03;;
8488;SDS011;4281;45.772;12.852;2023-05-10T11:01:10;5.33;;;4.93;;
8488;SDS011;4281;45.772;12.852;2023-05-10T11:03:41;5.80;;;5.30;;
8488;SDS011;4281;45.772;12.852;2023-05-10T11:06:28;6.33;;;5.13;;
8488;SDS011;4281;45.772;12.852;2023-05-10T11:08:56;5.97;;;5.00;;
8488;SDS011;4281;45.772;12.852;2023-05-10T11:11:24;5.50;;;5.00;;
8488;SDS011;4281;45.772;12.852;2023-05-10T11:13:52;5.40;;;4.90;;
8488;SDS011;4281;45.772;12.852;2023-05-10T11:16:22;5.53;;;5.03;;
8488;SDS011;4281;45.772;12.852;2023-05-10T11:18:52;4.97;;;4.57;;
8488;SDS011;4281;45.772;12.852;2023-05-10T11:21:28;5.77;;;5.20;;
8488;SDS011;4281;45.772;12.852;2023-05-10T11:23:56;6.37;;;5.77;;
8488;SDS011;4281;45.772;12.852;2023-05-10T11:26:25;6.10;;;5.60;;
8488;SDS011;4281;45.772;12.852;2023-05-10T11:28:57;5.90;;;5.10;;
8488;SDS011;4281;45.772;12.852;2023-05-10T11:31:28;6.73;;;5.20;;
8488;SDS011;4281;45.772;12.852;2023-05-10T11:33:56;5.83;;;5.33;;
8488;SDS011;4281;45.772;12.852;2023-05-10T11:36:27;5.90;;;5.30;;
8488;SDS011;4281;45.772;12.852;2023-05-10T11:38:56;6.57;;;5.90;;
8488;SDS011;4281;45.772;12.852;2023-05-10T11:41:24;6.67;;;5.80;;
8488;SDS011;4281;45.772;12.852;2023-05-10T11:43:53;5.77;;;5.27;;
8488;SDS011;4281;45.772;12.852;2023-05-10T11:46:22;6.27;;;5.63;;
8488;SDS011;4281;45.772;12.852;2023-05-10T11:48:54;5.73;;;5.13;;
8488;SDS011;4281;45.772;12.852;2023-05-10T11:51:24;5.33;;;4.83;;
8488;SDS011;4281;45.772;12.852;2023-05-10T11:53:53;5.30;;;4.87;;
8488;SDS011;4281;45.772;12.852;2023-05-10T11:56:21;5.60;;;5.10;;
8488;SDS011;4281;45.772;12.852;2023-05-10T11:58:52;5.80;;;5.30;;
8488;SDS011;4281;45.772;12.852;2023-05-10T12:01:20;5.87;;;5.27;;
8488;SDS011;4281;45.772;12.852;2023-05-10T12:03:48;6.00;;;5.50;;
8488;SDS011;4281;45.772;12.852;2023-05-10T12:06:18;6.70;;;6.10;;
8488;SDS011;4281;45.772;12.852;2023-05-10T12:08:47;6.70;;;6.10;;
8488;SDS011;4281;45.772;12.852;2023-05-10T12:11:18;6.47;;;5.80;;
8488;SDS011;4281;45.772;12.852;2023-05-10T12:13:48;6.67;;;5.97;;
8488;SDS011;4281;45.772;12.852;2023-05-10T12:16:16;6.33;;;5.73;;
8488;SDS011;4281;45.772;12.852;2023-05-10T12:18:45;6.67;;;6.07;;
8488;SDS011;4281;45.772;12.852;2023-05-10T12:21:15;6.30;;;5.70;;
8488;SDS011;4281;45.772;12.852;2023-05-10T12:23:46;7.17;;;5.70;;
8488;SDS011;4281;45.772;12.852;2023-05-10T12:26:14;6.93;;;6.33;;
8488;SDS011;4281;45.772;12.852;2023-05-10T12:28:42;6.43;;;5.80;;
8488;SDS011;4281;45.772;12.852;2023-05-10T12:31:10;6.67;;;6.07;;
8488;SDS011;4281;45.772;12.852;2023-05-10T12:33:38;7.43;;;6.83;;
8488;SDS011;4281;45.772;12.852;2023-05-10T12:36:08;6.57;;;5.97;;
8488;SDS011;4281;45.772;12.852;2023-05-10T12:38:36;6.50;;;5.90;;
8488;SDS011;4281;45.772;12.852;2023-05-10T12:41:07;6.77;;;6.17;;
8488;SDS011;4281;45.772;12.852;2023-05-10T12:43:37;7.13;;;6.53;;
8488;SDS011;4281;45.772;12.852;2023-05-10T12:46:06;6.80;;;6.20;;
8488;SDS011;4281;45.772;12.852;2023-05-10T12:48:35;7.10;;;6.40;;
8488;SDS011;4281;45.772;12.852;2023-05-10T12:51:03;6.73;;;6.17;;
8488;SDS011;4281;45.772;12.852;2023-05-10T12:53:31;6.17;;;5.67;;
8488;SDS011;4281;45.772;12.852;2023-05-10T12:55:59;7.20;;;6.50;;
8488;SDS011;4281;45.772;12.852;2023-05-10T12:58:28;7.77;;;7.07;;
8488;SDS011;4281;45.772;12.852;2023-05-10T13:01:01;7.23;;;6.63;;
8488;SDS011;4281;45.772;12.852;2023-05-10T13:03:30;7.60;;;7.00;;
8488;SDS011;4281;45.772;12.852;2023-05-10T13:05:58;7.90;;;7.20;;
8488;SDS011;4281;45.772;12.852;2023-05-10T13:08:26;7.20;;;6.43;;
8488;SDS011;4281;45.772;12.852;2023-05-10T13:10:55;6.87;;;6.27;;
8488;SDS011;4281;45.772;12.852;2023-05-10T13:13:23;6.93;;;6.33;;
8488;SDS011;4281;45.772;12.852;2023-05-10T13:15:52;6.90;;;6.30;;
8488;SDS011;4281;45.772;12.852;2023-05-10T13:18:20;6.90;;;6.30;;
8488;SDS011;4281;45.772;12.852;2023-05-10T13:20:48;7.10;;;6.60;;
8488;SDS011;4281;45.772;12.852;2023-05-10T13:23:16;7.80;;;6.97;;
8488;SDS011;4281;45.772;12.852;2023-05-10T13:25:44;6.83;;;6.23;;
8488;SDS011;4281;45.772;12.852;2023-05-10T13:28:12;7.60;;;6.93;;
8488;SDS011;4281;45.772;12.852;2023-05-10T13:30:40;7.30;;;6.70;;
8488;SDS011;4281;45.772;12.852;2023-05-10T13:33:09;7.07;;;6.57;;
8488;SDS011;4281;45.772;12.852;2023-05-10T13:35:37;7.67;;;6.97;;
8488;SDS011;4281;45.772;12.852;2023-05-10T13:38:05;7.07;;;6.47;;
8488;SDS011;4281;45.772;12.852;2023-05-10T13:40:34;7.47;;;6.77;;
8488;SDS011;4281;45.772;12.852;2023-05-10T13:43:02;7.83;;;7.13;;
8488;SDS011;4281;45.772;12.852;2023-05-10T13:45:30;7.73;;;7.13;;
8488;SDS011;4281;45.772;12.852;2023-05-10T13:47:58;7.37;;;6.77;;
8488;SDS011;4281;45.772;12.852;2023-05-10T13:50:27;6.63;;;6.13;;
8488;SDS011;4281;45.772;12.852;2023-05-10T13:52:55;8.10;;;7.30;;
8488;SDS011;4281;45.772;12.852;2023-05-10T13:55:22;8.10;;;7.40;;
8488;SDS011;4281;45.772;12.852;2023-05-10T13:57:50;7.80;;;7.10;;
8488;SDS011;4281;45.772;12.852;2023-05-10T14:00:18;8.50;;;7.70;;
8488;SDS011;4281;45.772;12.852;2023-05-10T14:02:46;7.80;;;7.10;;
8488;SDS011;4281;45.772;12.852;2023-05-10T14:05:14;7.93;;;7.33;;
8488;SDS011;4281;45.772;12.852;2023-05-10T14:07:46;8.13;;;7.40;;
8488;SDS011;4281;45.772;12.852;2023-05-10T14:10:14;8.03;;;7.33;;
8488;SDS011;4281;45.772;12.852;2023-05-10T14:12:42;8.67;;;7.87;;
8488;SDS011;4281;45.772;12.852;2023-05-10T14:15:10;8.03;;;7.30;;
8488;SDS011;4281;45.772;12.852;2023-05-10T14:17:38;7.70;;;7.10;;
8488;SDS011;4281;45.772;12.852;2023-05-10T14:20:06;7.93;;;7.33;;
8488;SDS011;4281;45.772;12.852;2023-05-10T14:22:35;8.93;;;8.13;;
8488;SDS011;4281;45.772;12.852;2023-05-10T14:25:04;8.67;;;7.90;;
8488;SDS011;4281;45.772;12.852;2023-05-10T14:27:32;8.83;;;8.03;;
8488;SDS011;4281;45.772;12.852;2023-05-10T14:30:00;8.63;;;7.93;;
8488;SDS011;4281;45.772;12.852;2023-05-10T14:32:28;8.23;;;7.53;;
8488;SDS011;4281;45.772;12.852;2023-05-10T14:34:58;8.90;;;8.10;;
8488;SDS011;4281;45.772;12.852;2023-05-10T14:37:26;8.07;;;7.37;;
8488;SDS011;4281;45.772;12.852;2023-05-10T14:39:53;9.23;;;8.53;;
8488;SDS011;4281;45.772;12.852;2023-05-10T14:42:23;8.93;;;8.13;;
8488;SDS011;4281;45.772;12.852;2023-05-10T14:44:51;9.50;;;8.80;;
8488;SDS011;4281;45.772;12.852;2023-05-10T14:47:18;9.27;;;8.47;;
8488;SDS011;4281;45.772;12.852;2023-05-10T14:49:46;10.80;;;9.87;;
8488;SDS011;4281;45.772;12.852;2023-05-10T14:52:14;10.27;;;9.37;;
8488;SDS011;4281;45.772;12.852;2023-05-10T14:54:42;10.03;;;9.23;;
8488;SDS011;4281;45.772;12.852;2023-05-10T14:57:10;11.20;;;10.13;;
8488;SDS011;4281;45.772;12.852;2023-05-10T14:59:39;10.77;;;9.77;;
8488;SDS011;4281;45.772;12.852;2023-05-10T15:02:07;10.17;;;9.27;;
8488;SDS011;4281;45.772;12.852;2023-05-10T15:04:37;10.87;;;10.07;;
8488;SDS011;4281;45.772;12.852;2023-05-10T15:07:05;10.00;;;9.20;;
8488;SDS011;4281;45.772;12.852;2023-05-10T15:09:33;10.77;;;9.87;;
8488;SDS011;4281;45.772;12.852;2023-05-10T15:12:00;11.07;;;10.17;;
8488;SDS011;4281;45.772;12.852;2023-05-10T15:14:28;10.70;;;9.80;;
8488;SDS011;4281;45.772;12.852;2023-05-10T15:16:57;11.17;;;10.27;;